sensor_id;sensor_type;location;lat;lon;timestamp;P1;durP1;ratioP1;P2;durP2;ratioP2
635;SDS011;302;50.206;8.196;2022-08-01T00:02:03;2.75;;;2.20;;
635;SDS011;302;50.206;8.196;2022-08-01T00:04:28;2.80;;;2.60;;
635;SDS011;302;50.206;8.196;2022-08-01T00:06:54;2.37;;;2.17;;
635;SDS011;302;50.206;8.196;2022-08-01T00:09:19;2.27;;;2.03;;
635;SDS011;302;50.206;8.196;2022-08-01T00:11:44;2.50;;;2.30;;
635;SDS011;302;50.206;8.196;2022-08-01T00:14:09;2.23;;;1.90;;
635;SDS011;302;50.206;8.196;2022-08-01T00:16:35;2.13;;;2.00;;
635;SDS011;302;50.206;8.196;2022-08-01T00:19:00;2.27;;;1.93;;
635;SDS011;302;50.206;8.196;2022-08-01T00:21:25;2.43;;;2.23;;
635;SDS011;302;50.206;8.196;2022-08-01T00:23:50;1.67;;;1.57;;
635;SDS011;302;50.206;8.196;2022-08-01T00:26:15;2.17;;;1.95;;
635;SDS011;302;50.206;8.196;2022-08-01T00:28:41;2.37;;;2.03;;
635;SDS011;302;50.206;8.196;2022-08-01T00:31:06;2.57;;;2.27;;
635;SDS011;302;50.206;8.196;2022-08-01T00:33:32;1.80;;;1.70;;
635;SDS011;302;50.206;8.196;2022-08-01T00:35:57;2.30;;;2.10;;
635;SDS011;302;50.206;8.196;2022-08-01T00:38:22;2.27;;;2.10;;
635;SDS011;302;50.206;8.196;2022-08-01T00:40:47;3.53;;;2.30;;
635;SDS011;302;50.206;8.196;2022-08-01T00:43:12;2.50;;;2.30;;
635;SDS011;302;50.206;8.196;2022-08-01T00:45:38;1.90;;;1.80;;
635;SDS011;302;50.206;8.196;2022-08-01T00:48:03;2.28;;;2.08;;
635;SDS011;302;50.206;8.196;2022-08-01T00:50:28;2.47;;;2.27;;
635;SDS011;302;50.206;8.196;2022-08-01T00:52:54;1.97;;;1.87;;
635;SDS011;302;50.206;8.196;2022-08-01T00:55:19;1.80;;;1.70;;
635;SDS011;302;50.206;8.196;2022-08-01T00:57:45;3.17;;;1.87;;
635;SDS011;302;50.206;8.196;2022-08-01T01:00:10;2.80;;;2.07;;
635;SDS011;302;50.206;8.196;2022-08-01T01:02:36;1.97;;;1.87;;
635;SDS011;302;50.206;8.196;2022-08-01T01:05:01;3.00;;;2.60;;
635;SDS011;302;50.206;8.196;2022-08-01T01:07:34;2.27;;;2.00;;
635;SDS011;302;50.206;8.196;2022-08-01T01:15:23;2.33;;;2.22;;
635;SDS011;302;50.206;8.196;2022-08-01T01:17:52;2.47;;;2.28;;
635;SDS011;302;50.206;8.196;2022-08-01T01:20:21;2.00;;;1.90;;
635;SDS011;302;50.206;8.196;2022-08-01T01:25:18;2.20;;;2.08;;
635;SDS011;302;50.206;8.196;2022-08-01T01:27:51;2.20;;;2.00;;
635;SDS011;302;50.206;8.196;2022-08-01T01:30:16;2.78;;;2.28;;
635;SDS011;302;50.206;8.196;2022-08-01T01:32:43;2.67;;;2.47;;
635;SDS011;302;50.206;8.196;2022-08-01T01:35:10;2.70;;;2.50;;
635;SDS011;302;50.206;8.196;2022-08-01T01:37:37;3.65;;;2.53;;
635;SDS011;302;50.206;8.196;2022-08-01T01:40:03;2.78;;;2.50;;
635;SDS011;302;50.206;8.196;2022-08-01T01:42:29;2.93;;;2.20;;
635;SDS011;302;50.206;8.196;2022-08-01T01:44:55;3.92;;;2.28;;
635;SDS011;302;50.206;8.196;2022-08-01T01:47:20;2.63;;;2.43;;
635;SDS011;302;50.206;8.196;2022-08-01T01:49:46;2.90;;;2.60;;
635;SDS011;302;50.206;8.196;2022-08-01T01:52:12;2.97;;;2.67;;
635;SDS011;302;50.206;8.196;2022-08-01T01:54:39;2.30;;;2.10;;
635;SDS011;302;50.206;8.196;2022-08-01T01:57:05;2.25;;;2.05;;
635;SDS011;302;50.206;8.196;2022-08-01T01:59:32;2.33;;;2.13;;
635;SDS011;302;50.206;8.196;2022-08-01T02:01:58;2.90;;;2.60;;
635;SDS011;302;50.206;8.196;2022-08-01T02:04:24;3.03;;;2.75;;
635;SDS011;302;50.206;8.196;2022-08-01T02:06:50;2.43;;;2.23;;
635;SDS011;302;50.206;8.196;2022-08-01T02:09:17;2.55;;;2.35;;
635;SDS011;302;50.206;8.196;2022-08-01T02:11:43;2.78;;;2.58;;
635;SDS011;302;50.206;8.196;2022-08-01T02:14:09;3.60;;;2.20;;
635;SDS011;302;50.206;8.196;2022-08-01T02:16:35;2.28;;;2.08;;
635;SDS011;302;50.206;8.196;2022-08-01T02:19:02;2.42;;;2.22;;
635;SDS011;302;50.206;8.196;2022-08-01T02:21:28;2.67;;;2.47;;
635;SDS011;302;50.206;8.196;2022-08-01T02:23:55;2.20;;;2.00;;
635;SDS011;302;50.206;8.196;2022-08-01T02:26:22;2.50;;;2.30;;
635;SDS011;302;50.206;8.196;2022-08-01T02:28:50;2.80;;;2.60;;
635;SDS011;302;50.206;8.196;2022-08-01T02:31:19;2.55;;;2.10;;
635;SDS011;302;50.206;8.196;2022-08-01T02:33:45;2.38;;;2.17;;
635;SDS011;302;50.206;8.196;2022-08-01T02:36:12;2.47;;;2.22;;
635;SDS011;302;50.206;8.196;2022-08-01T02:38:43;3.35;;;2.78;;
635;SDS011;302;50.206;8.196;2022-08-01T02:41:10;2.20;;;2.10;;
635;SDS011;302;50.206;8.196;2022-08-01T02:43:38;2.38;;;2.25;;
635;SDS011;302;50.206;8.196;2022-08-01T02:46:06;2.20;;;2.10;;
635;SDS011;302;50.206;8.196;2022-08-01T02:48:33;2.60;;;2.15;;
635;SDS011;302;50.206;8.196;2022-08-01T02:51:00;2.95;;;2.75;;
635;SDS011;302;50.206;8.196;2022-08-01T02:53:26;3.67;;;2.53;;
635;SDS011;302;50.206;8.196;2022-08-01T02:55:52;3.45;;;3.15;;
635;SDS011;302;50.206;8.196;2022-08-01T02:58:18;3.73;;;2.77;;
635;SDS011;302;50.206;8.196;2022-08-01T03:00:44;2.30;;;2.10;;
635;SDS011;302;50.206;8.196;2022-08-01T03:03:10;2.87;;;2.67;;
635;SDS011;302;50.206;8.196;2022-08-01T03:05:36;2.40;;;2.20;;
635;SDS011;302;50.206;8.196;2022-08-01T03:08:02;2.20;;;2.10;;
635;SDS011;302;50.206;8.196;2022-08-01T03:10:28;2.53;;;2.33;;
635;SDS011;302;50.206;8.196;2022-08-01T03:12:54;2.50;;;2.20;;
635;SDS011;302;50.206;8.196;2022-08-01T03:15:20;2.80;;;2.60;;
635;SDS011;302;50.206;8.196;2022-08-01T03:17:47;2.70;;;2.50;;
635;SDS011;302;50.206;8.196;2022-08-01T03:20:13;2.30;;;2.13;;
635;SDS011;302;50.206;8.196;2022-08-01T03:22:39;2.72;;;2.53;;
635;SDS011;302;50.206;8.196;2022-08-01T03:25:05;2.60;;;2.40;;
635;SDS011;302;50.206;8.196;2022-08-01T03:27:31;2.50;;;2.30;;
635;SDS011;302;50.206;8.196;2022-08-01T03:29:57;2.63;;;2.40;;
635;SDS011;302;50.206;8.196;2022-08-01T03:32:23;2.80;;;2.53;;
635;SDS011;302;50.206;8.196;2022-08-01T03:34:48;2.83;;;2.27;;
635;SDS011;302;50.206;8.196;2022-08-01T03:42:24;2.63;;;2.20;;
635;SDS011;302;50.206;8.196;2022-08-01T03:44:53;2.40;;;2.20;;
635;SDS011;302;50.206;8.196;2022-08-01T03:47:19;2.60;;;2.40;;
635;SDS011;302;50.206;8.196;2022-08-01T03:49:47;2.60;;;2.30;;
635;SDS011;302;50.206;8.196;2022-08-01T03:52:13;2.20;;;2.10;;
635;SDS011;302;50.206;8.196;2022-08-01T03:54:45;2.97;;;2.70;;
635;SDS011;302;50.206;8.196;2022-08-01T03:57:11;2.90;;;2.70;;
635;SDS011;302;50.206;8.196;2022-08-01T03:59:36;2.30;;;2.13;;
635;SDS011;302;50.206;8.196;2022-08-01T04:02:02;3.23;;;3.03;;
635;SDS011;302;50.206;8.196;2022-08-01T04:04:28;2.53;;;2.33;;
635;SDS011;302;50.206;8.196;2022-08-01T04:06:53;2.87;;;2.67;;
635;SDS011;302;50.206;8.196;2022-08-01T04:09:19;3.10;;;2.63;;
635;SDS011;302;50.206;8.196;2022-08-01T04:11:45;2.77;;;2.57;;
635;SDS011;302;50.206;8.196;2022-08-01T04:14:10;2.40;;;2.20;;
635;SDS011;302;50.206;8.196;2022-08-01T04:16:35;2.37;;;2.20;;
635;SDS011;302;50.206;8.196;2022-08-01T04:19:00;2.85;;;2.65;;
635;SDS011;302;50.206;8.196;2022-08-01T04:21:26;2.77;;;2.57;;
635;SDS011;302;50.206;8.196;2022-08-01T04:23:52;2.90;;;2.60;;
635;SDS011;302;50.206;8.196;2022-08-01T04:26:19;2.85;;;2.65;;
635;SDS011;302;50.206;8.196;2022-08-01T04:28:44;2.90;;;2.70;;
635;SDS011;302;50.206;8.196;2022-08-01T04:31:10;3.03;;;2.83;;
635;SDS011;302;50.206;8.196;2022-08-01T04:33:36;2.75;;;2.55;;
635;SDS011;302;50.206;8.196;2022-08-01T04:36:03;3.25;;;3.05;;
635;SDS011;302;50.206;8.196;2022-08-01T04:38:29;3.10;;;2.90;;
635;SDS011;302;50.206;8.196;2022-08-01T04:40:55;3.42;;;3.22;;
635;SDS011;302;50.206;8.196;2022-08-01T04:43:21;3.10;;;2.80;;
635;SDS011;302;50.206;8.196;2022-08-01T04:45:46;3.77;;;3.47;;
635;SDS011;302;50.206;8.196;2022-08-01T04:48:12;3.40;;;3.20;;
635;SDS011;302;50.206;8.196;2022-08-01T04:50:38;3.72;;;3.53;;
635;SDS011;302;50.206;8.196;2022-08-01T04:53:03;3.77;;;3.57;;
635;SDS011;302;50.206;8.196;2022-08-01T04:55:28;3.17;;;2.87;;
635;SDS011;302;50.206;8.196;2022-08-01T04:57:53;3.27;;;3.00;;
635;SDS011;302;50.206;8.196;2022-08-01T05:00:19;3.23;;;3.03;;
635;SDS011;302;50.206;8.196;2022-08-01T05:02:44;2.93;;;2.73;;
635;SDS011;302;50.206;8.196;2022-08-01T05:05:09;3.50;;;3.30;;
635;SDS011;302;50.206;8.196;2022-08-01T05:07:35;3.23;;;3.03;;
635;SDS011;302;50.206;8.196;2022-08-01T05:10:01;3.40;;;3.10;;
635;SDS011;302;50.206;8.196;2022-08-01T05:12:26;3.03;;;2.83;;
635;SDS011;302;50.206;8.196;2022-08-01T05:14:51;3.23;;;2.93;;
635;SDS011;302;50.206;8.196;2022-08-01T05:17:17;3.97;;;3.67;;
635;SDS011;302;50.206;8.196;2022-08-01T05:19:42;3.60;;;3.40;;
635;SDS011;302;50.206;8.196;2022-08-01T05:22:08;3.40;;;3.13;;
635;SDS011;302;50.206;8.196;2022-08-01T05:24:34;3.30;;;3.00;;
635;SDS011;302;50.206;8.196;2022-08-01T05:26:59;3.28;;;3.08;;
635;SDS011;302;50.206;8.196;2022-08-01T05:29:24;3.70;;;3.50;;
635;SDS011;302;50.206;8.196;2022-08-01T05:31:50;3.80;;;3.50;;
635;SDS011;302;50.206;8.196;2022-08-01T05:34:15;3.83;;;3.53;;
635;SDS011;302;50.206;8.196;2022-08-01T05:36:40;3.30;;;3.10;;
635;SDS011;302;50.206;8.196;2022-08-01T05:39:05;3.40;;;3.20;;
635;SDS011;302;50.206;8.196;2022-08-01T05:41:31;4.07;;;3.77;;
635;SDS011;302;50.206;8.196;2022-08-01T05:43:56;3.60;;;3.40;;
635;SDS011;302;50.206;8.196;2022-08-01T05:46:21;3.10;;;2.90;;
635;SDS011;302;50.206;8.196;2022-08-01T05:48:46;3.30;;;3.10;;
635;SDS011;302;50.206;8.196;2022-08-01T05:51:11;3.17;;;2.97;;
635;SDS011;302;50.206;8.196;2022-08-01T05:53:37;3.25;;;3.05;;
635;SDS011;302;50.206;8.196;2022-08-01T05:56:02;3.37;;;3.07;;
635;SDS011;302;50.206;8.196;2022-08-01T05:58:27;3.30;;;3.10;;
635;SDS011;302;50.206;8.196;2022-08-01T06:00:52;2.83;;;2.67;;
635;SDS011;302;50.206;8.196;2022-08-01T06:03:18;3.50;;;2.80;;
635;SDS011;302;50.206;8.196;2022-08-01T06:05:43;2.90;;;2.70;;
635;SDS011;302;50.206;8.196;2022-08-01T06:08:08;3.90;;;3.00;;
635;SDS011;302;50.206;8.196;2022-08-01T06:10:33;3.03;;;2.73;;
635;SDS011;302;50.206;8.196;2022-08-01T06:12:58;2.73;;;2.53;;
635;SDS011;302;50.206;8.196;2022-08-01T06:15:27;2.92;;;2.72;;
635;SDS011;302;50.206;8.196;2022-08-01T06:17:53;2.97;;;2.77;;
635;SDS011;302;50.206;8.196;2022-08-01T06:20:18;3.33;;;3.00;;
635;SDS011;302;50.206;8.196;2022-08-01T06:22:43;2.97;;;2.70;;
635;SDS011;302;50.206;8.196;2022-08-01T06:25:08;3.13;;;2.93;;
635;SDS011;302;50.206;8.196;2022-08-01T06:27:34;3.00;;;2.80;;
635;SDS011;302;50.206;8.196;2022-08-01T06:29:59;3.10;;;2.90;;
635;SDS011;302;50.206;8.196;2022-08-01T06:32:24;3.10;;;2.90;;
635;SDS011;302;50.206;8.196;2022-08-01T06:34:51;3.65;;;3.35;;
635;SDS011;302;50.206;8.196;2022-08-01T06:37:16;3.17;;;2.97;;
635;SDS011;302;50.206;8.196;2022-08-01T06:39:41;2.73;;;2.53;;
635;SDS011;302;50.206;8.196;2022-08-01T06:42:06;2.80;;;2.60;;
635;SDS011;302;50.206;8.196;2022-08-01T06:44:31;2.97;;;2.77;;
635;SDS011;302;50.206;8.196;2022-08-01T06:46:56;2.90;;;2.70;;
635;SDS011;302;50.206;8.196;2022-08-01T06:49:23;3.13;;;2.80;;
635;SDS011;302;50.206;8.196;2022-08-01T06:51:48;4.00;;;3.70;;
635;SDS011;302;50.206;8.196;2022-08-01T06:54:13;4.30;;;3.93;;
635;SDS011;302;50.206;8.196;2022-08-01T06:56:39;3.20;;;2.90;;
635;SDS011;302;50.206;8.196;2022-08-01T06:59:04;3.40;;;3.10;;
635;SDS011;302;50.206;8.196;2022-08-01T07:01:29;4.17;;;3.23;;
635;SDS011;302;50.206;8.196;2022-08-01T07:03:54;3.33;;;3.13;;
635;SDS011;302;50.206;8.196;2022-08-01T07:06:20;3.50;;;3.30;;
635;SDS011;302;50.206;8.196;2022-08-01T07:08:46;3.70;;;3.40;;
635;SDS011;302;50.206;8.196;2022-08-01T07:11:11;3.65;;;3.45;;
635;SDS011;302;50.206;8.196;2022-08-01T07:13:36;4.28;;;3.97;;
635;SDS011;302;50.206;8.196;2022-08-01T07:16:01;3.58;;;3.38;;
635;SDS011;302;50.206;8.196;2022-08-01T07:18:26;4.40;;;4.10;;
635;SDS011;302;50.206;8.196;2022-08-01T07:20:52;4.00;;;3.70;;
635;SDS011;302;50.206;8.196;2022-08-01T07:23:17;4.80;;;4.10;;
635;SDS011;302;50.206;8.196;2022-08-01T07:25:42;5.30;;;4.80;;
635;SDS011;302;50.206;8.196;2022-08-01T07:28:07;4.60;;;4.27;;
635;SDS011;302;50.206;8.196;2022-08-01T07:30:33;4.13;;;3.83;;
635;SDS011;302;50.206;8.196;2022-08-01T07:32:58;4.33;;;4.03;;
635;SDS011;302;50.206;8.196;2022-08-01T07:35:23;5.00;;;4.60;;
635;SDS011;302;50.206;8.196;2022-08-01T07:37:48;4.63;;;4.23;;
635;SDS011;302;50.206;8.196;2022-08-01T07:40:13;6.90;;;6.30;;
635;SDS011;302;50.206;8.196;2022-08-01T07:42:38;7.00;;;6.40;;
635;SDS011;302;50.206;8.196;2022-08-01T07:45:04;7.07;;;6.50;;
635;SDS011;302;50.206;8.196;2022-08-01T07:47:29;7.70;;;6.87;;
635;SDS011;302;50.206;8.196;2022-08-01T07:49:58;6.78;;;6.20;;
635;SDS011;302;50.206;8.196;2022-08-01T07:52:24;7.95;;;7.05;;
635;SDS011;302;50.206;8.196;2022-08-01T07:54:49;6.60;;;6.00;;
635;SDS011;302;50.206;8.196;2022-08-01T07:57:14;6.20;;;5.70;;
635;SDS011;302;50.206;8.196;2022-08-01T07:59:39;7.72;;;6.38;;
635;SDS011;302;50.206;8.196;2022-08-01T08:02:04;7.13;;;6.60;;
635;SDS011;302;50.206;8.196;2022-08-01T08:04:29;7.13;;;6.53;;
635;SDS011;302;50.206;8.196;2022-08-01T08:06:55;6.77;;;6.27;;
635;SDS011;302;50.206;8.196;2022-08-01T08:09:20;7.57;;;6.80;;
635;SDS011;302;50.206;8.196;2022-08-01T08:11:45;7.50;;;6.80;;
635;SDS011;302;50.206;8.196;2022-08-01T08:14:11;7.00;;;6.47;;
635;SDS011;302;50.206;8.196;2022-08-01T08:16:36;6.83;;;6.23;;
635;SDS011;302;50.206;8.196;2022-08-01T08:19:01;6.27;;;5.77;;
635;SDS011;302;50.206;8.196;2022-08-01T08:21:26;7.07;;;6.47;;
635;SDS011;302;50.206;8.196;2022-08-01T08:23:52;6.57;;;6.00;;
635;SDS011;302;50.206;8.196;2022-08-01T08:26:36;7.63;;;6.93;;
635;SDS011;302;50.206;8.196;2022-08-01T08:29:02;7.00;;;5.80;;
635;SDS011;302;50.206;8.196;2022-08-01T08:31:27;6.70;;;6.20;;
635;SDS011;302;50.206;8.196;2022-08-01T08:33:52;6.67;;;6.10;;
635;SDS011;302;50.206;8.196;2022-08-01T08:36:18;5.55;;;5.05;;
635;SDS011;302;50.206;8.196;2022-08-01T08:38:43;6.00;;;5.60;;
635;SDS011;302;50.206;8.196;2022-08-01T08:41:08;6.13;;;5.63;;
635;SDS011;302;50.206;8.196;2022-08-01T08:43:34;6.27;;;5.77;;
635;SDS011;302;50.206;8.196;2022-08-01T08:45:59;6.60;;;6.00;;
635;SDS011;302;50.206;8.196;2022-08-01T08:48:26;5.47;;;5.07;;
635;SDS011;302;50.206;8.196;2022-08-01T08:50:51;5.40;;;5.00;;
635;SDS011;302;50.206;8.196;2022-08-01T08:53:16;5.07;;;4.67;;
635;SDS011;302;50.206;8.196;2022-08-01T08:55:43;5.27;;;4.87;;
635;SDS011;302;50.206;8.196;2022-08-01T08:58:12;4.83;;;4.43;;
635;SDS011;302;50.206;8.196;2022-08-01T09:00:38;5.77;;;5.27;;
635;SDS011;302;50.206;8.196;2022-08-01T09:03:04;5.00;;;4.50;;
635;SDS011;302;50.206;8.196;2022-08-01T09:05:29;4.97;;;4.50;;
635;SDS011;302;50.206;8.196;2022-08-01T09:07:54;5.40;;;5.00;;
635;SDS011;302;50.206;8.196;2022-08-01T09:10:19;5.20;;;4.80;;
635;SDS011;302;50.206;8.196;2022-08-01T09:15:41;4.93;;;4.50;;
635;SDS011;302;50.206;8.196;2022-08-01T09:18:06;4.53;;;4.13;;
635;SDS011;302;50.206;8.196;2022-08-01T09:20:31;4.40;;;4.10;;
635;SDS011;302;50.206;8.196;2022-08-01T09:22:59;3.87;;;3.60;;
635;SDS011;302;50.206;8.196;2022-08-01T09:25:24;4.83;;;4.43;;
635;SDS011;302;50.206;8.196;2022-08-01T09:27:50;4.70;;;4.30;;
635;SDS011;302;50.206;8.196;2022-08-01T09:30:26;4.43;;;4.03;;
635;SDS011;302;50.206;8.196;2022-08-01T09:35:39;4.43;;;4.03;;
635;SDS011;302;50.206;8.196;2022-08-01T09:40:44;4.17;;;3.87;;
635;SDS011;302;50.206;8.196;2022-08-01T09:43:12;4.47;;;4.13;;
635;SDS011;302;50.206;8.196;2022-08-01T09:45:37;3.80;;;3.50;;
635;SDS011;302;50.206;8.196;2022-08-01T09:48:09;4.53;;;4.13;;
635;SDS011;302;50.206;8.196;2022-08-01T09:50:44;3.33;;;3.13;;
635;SDS011;302;50.206;8.196;2022-08-01T09:53:09;3.80;;;3.50;;
635;SDS011;302;50.206;8.196;2022-08-01T09:55:35;3.80;;;3.50;;
635;SDS011;302;50.206;8.196;2022-08-01T09:58:00;3.77;;;3.47;;
635;SDS011;302;50.206;8.196;2022-08-01T10:00:26;3.77;;;3.57;;
635;SDS011;302;50.206;8.196;2022-08-01T10:02:51;4.70;;;3.33;;
635;SDS011;302;50.206;8.196;2022-08-01T10:05:16;3.30;;;3.10;;
635;SDS011;302;50.206;8.196;2022-08-01T10:07:57;4.47;;;3.40;;
635;SDS011;302;50.206;8.196;2022-08-01T10:10:23;3.27;;;3.07;;
635;SDS011;302;50.206;8.196;2022-08-01T10:12:48;3.83;;;3.53;;
635;SDS011;302;50.206;8.196;2022-08-01T10:15:15;3.57;;;3.27;;
635;SDS011;302;50.206;8.196;2022-08-01T10:17:41;3.23;;;3.03;;
635;SDS011;302;50.206;8.196;2022-08-01T10:20:11;3.07;;;2.87;;
635;SDS011;302;50.206;8.196;2022-08-01T10:22:36;3.23;;;3.03;;
635;SDS011;302;50.206;8.196;2022-08-01T10:25:02;3.20;;;2.90;;
635;SDS011;302;50.206;8.196;2022-08-01T10:27:28;3.43;;;3.23;;
635;SDS011;302;50.206;8.196;2022-08-01T10:29:58;3.37;;;3.07;;
635;SDS011;302;50.206;8.196;2022-08-01T10:32:30;3.27;;;3.07;;
635;SDS011;302;50.206;8.196;2022-08-01T10:34:56;3.50;;;3.30;;
635;SDS011;302;50.206;8.196;2022-08-01T10:37:22;3.00;;;2.80;;
635;SDS011;302;50.206;8.196;2022-08-01T10:39:47;3.57;;;3.37;;
635;SDS011;302;50.206;8.196;2022-08-01T10:42:12;3.33;;;3.13;;
635;SDS011;302;50.206;8.196;2022-08-01T10:44:37;3.50;;;3.10;;
635;SDS011;302;50.206;8.196;2022-08-01T10:47:08;3.60;;;3.30;;
635;SDS011;302;50.206;8.196;2022-08-01T10:49:34;2.90;;;2.70;;
635;SDS011;302;50.206;8.196;2022-08-01T10:52:01;3.40;;;3.03;;
635;SDS011;302;50.206;8.196;2022-08-01T10:54:26;3.47;;;3.17;;
635;SDS011;302;50.206;8.196;2022-08-01T10:56:52;4.90;;;3.17;;
635;SDS011;302;50.206;8.196;2022-08-01T10:59:21;3.00;;;2.80;;
635;SDS011;302;50.206;8.196;2022-08-01T11:02:56;3.30;;;3.00;;
635;SDS011;302;50.206;8.196;2022-08-01T11:04:49;3.60;;;3.30;;
635;SDS011;302;50.206;8.196;2022-08-01T11:07:17;3.27;;;3.07;;
635;SDS011;302;50.206;8.196;2022-08-01T11:09:47;3.17;;;2.97;;
635;SDS011;302;50.206;8.196;2022-08-01T11:12:16;3.80;;;3.50;;
635;SDS011;302;50.206;8.196;2022-08-01T11:20:03;3.63;;;3.33;;
635;SDS011;302;50.206;8.196;2022-08-01T11:22:29;3.40;;;3.20;;
635;SDS011;302;50.206;8.196;2022-08-01T11:24:54;4.00;;;3.70;;
635;SDS011;302;50.206;8.196;2022-08-01T11:27:25;3.70;;;3.40;;
635;SDS011;302;50.206;8.196;2022-08-01T11:32:45;3.10;;;2.90;;
635;SDS011;302;50.206;8.196;2022-08-01T11:35:11;3.50;;;3.20;;
635;SDS011;302;50.206;8.196;2022-08-01T11:37:36;3.43;;;3.20;;
635;SDS011;302;50.206;8.196;2022-08-01T11:42:42;3.27;;;3.03;;
635;SDS011;302;50.206;8.196;2022-08-01T11:45:08;4.07;;;3.00;;
635;SDS011;302;50.206;8.196;2022-08-01T11:50:07;3.30;;;3.00;;
635;SDS011;302;50.206;8.196;2022-08-01T11:52:56;3.60;;;3.30;;
635;SDS011;302;50.206;8.196;2022-08-01T11:55:21;2.73;;;2.53;;
635;SDS011;302;50.206;8.196;2022-08-01T11:57:47;3.10;;;2.90;;
635;SDS011;302;50.206;8.196;2022-08-01T12:00:16;3.67;;;3.13;;
635;SDS011;302;50.206;8.196;2022-08-01T12:02:42;3.20;;;2.93;;
635;SDS011;302;50.206;8.196;2022-08-01T12:05:11;2.90;;;2.70;;
635;SDS011;302;50.206;8.196;2022-08-01T12:07:37;4.17;;;3.10;;
635;SDS011;302;50.206;8.196;2022-08-01T12:10:04;3.67;;;3.17;;
635;SDS011;302;50.206;8.196;2022-08-01T12:12:29;4.10;;;3.80;;
635;SDS011;302;50.206;8.196;2022-08-01T12:14:59;3.10;;;2.90;;
635;SDS011;302;50.206;8.196;2022-08-01T12:17:32;3.77;;;3.47;;
635;SDS011;302;50.206;8.196;2022-08-01T12:19:57;3.73;;;3.43;;
635;SDS011;302;50.206;8.196;2022-08-01T12:22:23;3.10;;;2.90;;
635;SDS011;302;50.206;8.196;2022-08-01T12:24:48;3.30;;;3.10;;
635;SDS011;302;50.206;8.196;2022-08-01T12:27:23;3.30;;;3.00;;
635;SDS011;302;50.206;8.196;2022-08-01T12:29:48;3.03;;;2.83;;
635;SDS011;302;50.206;8.196;2022-08-01T12:32:24;4.13;;;3.67;;
635;SDS011;302;50.206;8.196;2022-08-01T12:34:50;4.00;;;3.70;;
635;SDS011;302;50.206;8.196;2022-08-01T12:37:15;3.90;;;3.60;;
635;SDS011;302;50.206;8.196;2022-08-01T12:39:41;4.30;;;4.00;;
635;SDS011;302;50.206;8.196;2022-08-01T12:42:07;4.17;;;3.77;;
635;SDS011;302;50.206;8.196;2022-08-01T12:44:32;3.80;;;3.50;;
635;SDS011;302;50.206;8.196;2022-08-01T12:46:58;3.70;;;3.50;;
635;SDS011;302;50.206;8.196;2022-08-01T12:49:23;4.00;;;3.67;;
635;SDS011;302;50.206;8.196;2022-08-01T12:51:49;3.47;;;3.20;;
635;SDS011;302;50.206;8.196;2022-08-01T12:54:14;4.80;;;4.40;;
635;SDS011;302;50.206;8.196;2022-08-01T12:56:40;4.23;;;3.93;;
635;SDS011;302;50.206;8.196;2022-08-01T12:59:21;4.27;;;3.87;;
635;SDS011;302;50.206;8.196;2022-08-01T13:01:49;4.80;;;4.07;;
635;SDS011;302;50.206;8.196;2022-08-01T13:04:14;3.93;;;3.67;;
635;SDS011;302;50.206;8.196;2022-08-01T13:06:39;4.83;;;4.43;;
635;SDS011;302;50.206;8.196;2022-08-01T13:09:10;4.43;;;4.10;;
635;SDS011;302;50.206;8.196;2022-08-01T13:11:37;4.80;;;3.97;;
635;SDS011;302;50.206;8.196;2022-08-01T13:14:02;4.03;;;3.70;;
635;SDS011;302;50.206;8.196;2022-08-01T13:16:27;4.50;;;4.20;;
635;SDS011;302;50.206;8.196;2022-08-01T13:18:54;4.20;;;3.90;;
635;SDS011;302;50.206;8.196;2022-08-01T13:21:21;4.10;;;3.80;;
635;SDS011;302;50.206;8.196;2022-08-01T13:24:05;4.50;;;4.10;;
635;SDS011;302;50.206;8.196;2022-08-01T13:29:03;4.47;;;4.17;;
635;SDS011;302;50.206;8.196;2022-08-01T13:31:33;4.37;;;4.00;;
635;SDS011;302;50.206;8.196;2022-08-01T13:33:58;4.30;;;3.70;;
635;SDS011;302;50.206;8.196;2022-08-01T13:36:24;4.47;;;4.07;;
635;SDS011;302;50.206;8.196;2022-08-01T13:38:51;4.53;;;4.13;;
635;SDS011;302;50.206;8.196;2022-08-01T13:41:35;3.97;;;3.77;;
635;SDS011;302;50.206;8.196;2022-08-01T13:44:00;4.30;;;4.00;;
635;SDS011;302;50.206;8.196;2022-08-01T13:46:25;4.60;;;4.20;;
635;SDS011;302;50.206;8.196;2022-08-01T13:48:51;4.77;;;4.37;;
635;SDS011;302;50.206;8.196;2022-08-01T13:51:16;4.10;;;3.80;;
635;SDS011;302;50.206;8.196;2022-08-01T13:53:41;5.13;;;4.03;;
635;SDS011;302;50.206;8.196;2022-08-01T13:56:06;4.60;;;4.30;;
635;SDS011;302;50.206;8.196;2022-08-01T13:58:32;4.67;;;4.27;;
635;SDS011;302;50.206;8.196;2022-08-01T14:00:57;4.63;;;4.27;;
635;SDS011;302;50.206;8.196;2022-08-01T14:03:22;4.00;;;3.70;;
635;SDS011;302;50.206;8.196;2022-08-01T14:05:47;4.57;;;4.17;;
635;SDS011;302;50.206;8.196;2022-08-01T14:08:13;4.70;;;4.30;;
635;SDS011;302;50.206;8.196;2022-08-01T14:10:39;4.97;;;4.57;;
635;SDS011;302;50.206;8.196;2022-08-01T14:13:04;5.93;;;5.43;;
635;SDS011;302;50.206;8.196;2022-08-01T14:15:30;4.53;;;4.23;;
635;SDS011;302;50.206;8.196;2022-08-01T14:17:55;4.93;;;4.53;;
635;SDS011;302;50.206;8.196;2022-08-01T14:20:21;4.57;;;4.27;;
635;SDS011;302;50.206;8.196;2022-08-01T14:22:46;5.03;;;4.63;;
635;SDS011;302;50.206;8.196;2022-08-01T14:25:11;4.60;;;4.30;;
635;SDS011;302;50.206;8.196;2022-08-01T14:27:37;5.07;;;4.77;;
635;SDS011;302;50.206;8.196;2022-08-01T14:30:02;5.20;;;4.80;;
635;SDS011;302;50.206;8.196;2022-08-01T14:32:28;5.40;;;5.00;;
635;SDS011;302;50.206;8.196;2022-08-01T14:34:53;4.47;;;4.17;;
635;SDS011;302;50.206;8.196;2022-08-01T14:37:18;5.00;;;4.50;;
635;SDS011;302;50.206;8.196;2022-08-01T14:39:43;4.93;;;4.47;;
635;SDS011;302;50.206;8.196;2022-08-01T14:42:08;3.77;;;3.57;;
635;SDS011;302;50.206;8.196;2022-08-01T14:44:33;4.47;;;4.17;;
635;SDS011;302;50.206;8.196;2022-08-01T14:46:59;4.73;;;4.23;;
635;SDS011;302;50.206;8.196;2022-08-01T14:49:24;4.13;;;3.83;;
635;SDS011;302;50.206;8.196;2022-08-01T14:51:50;4.23;;;3.90;;
635;SDS011;302;50.206;8.196;2022-08-01T14:54:34;4.27;;;3.97;;
635;SDS011;302;50.206;8.196;2022-08-01T14:56:59;4.67;;;4.27;;
635;SDS011;302;50.206;8.196;2022-08-01T14:59:24;4.05;;;3.75;;
635;SDS011;302;50.206;8.196;2022-08-01T15:01:50;5.03;;;4.17;;
635;SDS011;302;50.206;8.196;2022-08-01T15:04:15;4.00;;;3.70;;
635;SDS011;302;50.206;8.196;2022-08-01T15:06:42;3.93;;;3.63;;
635;SDS011;302;50.206;8.196;2022-08-01T15:09:07;4.60;;;4.10;;
635;SDS011;302;50.206;8.196;2022-08-01T15:11:32;3.90;;;3.60;;
635;SDS011;302;50.206;8.196;2022-08-01T15:13:57;4.10;;;3.80;;
635;SDS011;302;50.206;8.196;2022-08-01T15:16:41;3.20;;;3.00;;
635;SDS011;302;50.206;8.196;2022-08-01T15:19:06;3.57;;;3.27;;
635;SDS011;302;50.206;8.196;2022-08-01T15:21:31;3.77;;;3.47;;
635;SDS011;302;50.206;8.196;2022-08-01T15:23:57;4.03;;;3.73;;
635;SDS011;302;50.206;8.196;2022-08-01T15:26:22;3.60;;;3.30;;
635;SDS011;302;50.206;8.196;2022-08-01T15:28:47;4.10;;;3.80;;
635;SDS011;302;50.206;8.196;2022-08-01T15:31:12;3.60;;;3.30;;
635;SDS011;302;50.206;8.196;2022-08-01T15:33:37;3.23;;;3.03;;
635;SDS011;302;50.206;8.196;2022-08-01T15:36:03;3.77;;;3.37;;
635;SDS011;302;50.206;8.196;2022-08-01T15:38:28;3.70;;;3.40;;
635;SDS011;302;50.206;8.196;2022-08-01T15:40:53;3.50;;;3.30;;
635;SDS011;302;50.206;8.196;2022-08-01T15:43:18;4.03;;;3.73;;
635;SDS011;302;50.206;8.196;2022-08-01T15:45:43;4.03;;;3.73;;
635;SDS011;302;50.206;8.196;2022-08-01T15:48:09;4.47;;;4.17;;
635;SDS011;302;50.206;8.196;2022-08-01T15:50:34;3.90;;;3.60;;
635;SDS011;302;50.206;8.196;2022-08-01T15:52:59;4.37;;;4.07;;
635;SDS011;302;50.206;8.196;2022-08-01T15:55:24;5.20;;;4.70;;
635;SDS011;302;50.206;8.196;2022-08-01T15:57:49;4.57;;;4.17;;
635;SDS011;302;50.206;8.196;2022-08-01T16:00:14;5.28;;;4.82;;
635;SDS011;302;50.206;8.196;2022-08-01T16:02:40;3.93;;;3.63;;
635;SDS011;302;50.206;8.196;2022-08-01T16:05:05;4.53;;;4.23;;
635;SDS011;302;50.206;8.196;2022-08-01T16:07:30;4.83;;;4.40;;
635;SDS011;302;50.206;8.196;2022-08-01T16:09:56;5.90;;;4.03;;
635;SDS011;302;50.206;8.196;2022-08-01T16:12:21;4.00;;;3.60;;
635;SDS011;302;50.206;8.196;2022-08-01T16:14:46;3.93;;;3.53;;
635;SDS011;302;50.206;8.196;2022-08-01T16:17:11;3.88;;;3.67;;